createdAt,value
2023-03-02T00:02:43.178Z,403.10
2023-03-02T00:07:44.312Z,403.10
2023-03-02T00:12:41.578Z,403.10
2023-03-02T00:17:41.851Z,403.10
2023-03-02T00:22:41.140Z,403.10
2023-03-02T00:27:42.526Z,403.60
2023-03-02T00:32:39.595Z,407.30
2023-03-02T00:37:37.891Z,413.70
2023-03-02T00:42:37.181Z,421.30
2023-03-02T00:47:36.468Z,408.50
2023-03-02T00:52:37.774Z,411.40
2023-03-02T00:57:36.076Z,427.00
2023-03-02T01:02:34.449Z,416.40
2023-03-02T01:07:33.564Z,431.10
2023-03-02T01:12:32.851Z,361.20
2023-03-02T01:17:32.158Z,328.40
2023-03-02T01:22:32.483Z,367.40
2023-03-02T01:27:31.797Z,407.20
2023-03-02T01:32:30.169Z,445.00
2023-03-02T01:37:31.250Z,384.60
2023-03-02T01:42:28.538Z,405.70
2023-03-02T01:47:27.856Z,419.30
2023-03-02T01:52:28.183Z,398.20
2023-03-02T01:57:26.570Z,401.20
2023-03-02T02:02:25.680Z,422.90
2023-03-02T02:07:23.873Z,443.10
2023-03-02T02:12:24.002Z,464.10
2023-03-02T02:17:24.328Z,419.90
2023-03-02T02:22:22.640Z,377.20
2023-03-02T02:27:21.933Z,390.70
2023-03-02T02:32:21.339Z,437.40
2023-03-02T02:37:20.501Z,416.10
2023-03-02T02:42:19.650Z,360.10
2023-03-02T02:47:19.787Z,411.20
2023-03-02T02:52:18.112Z,426.70
2023-03-02T02:57:17.429Z,403.50
2023-03-02T03:02:16.753Z,406.50
2023-03-02T03:07:16.083Z,399.50
2023-03-02T03:12:16.398Z,421.10
2023-03-02T03:17:16.775Z,409.00
2023-03-02T03:22:13.859Z,431.10
2023-03-02T03:27:13.196Z,419.70
2023-03-02T03:32:12.596Z,433.00
2023-03-02T03:37:11.753Z,422.10
2023-03-02T03:42:11.086Z,425.30
2023-03-02T03:47:10.390Z,418.20
2023-03-02T03:52:09.689Z,424.20
2023-03-02T03:57:09.020Z,405.60
2023-03-02T04:02:08.372Z,338.10
2023-03-02T04:07:08.492Z,481.60
2023-03-02T04:12:08.780Z,397.80
2023-03-02T04:17:06.187Z,407.80
2023-03-02T04:22:05.273Z,427.60
2023-03-02T04:27:04.575Z,418.00
2023-03-02T04:32:04.081Z,408.40
2023-03-02T04:37:03.239Z,431.70
2023-03-02T04:42:03.338Z,411.90
2023-03-02T04:47:03.647Z,418.60
2023-03-02T04:52:00.952Z,404.00
2023-03-02T04:57:00.267Z,416.20
2023-03-02T05:01:59.618Z,400.30
2023-03-02T05:06:58.758Z,407.10
2023-03-02T05:11:59.088Z,409.90
2023-03-02T05:16:57.231Z,410.90
2023-03-02T05:21:56.612Z,390.70
2023-03-02T05:26:55.750Z,414.40
2023-03-02T05:31:56.172Z,408.90
2023-03-02T05:36:55.322Z,423.00
2023-03-02T05:41:53.622Z,423.40
2023-03-02T05:46:53.927Z,395.80
2023-03-02T05:51:52.264Z,421.30
2023-03-02T05:56:52.609Z,430.00
2023-03-02T06:01:51.894Z,437.20
2023-03-02T06:06:52.230Z,437.20
2023-03-02T06:11:51.540Z,437.20
2023-03-02T06:16:49.878Z,437.20
2023-03-02T06:21:50.157Z,437.20
2023-03-02T06:26:47.285Z,437.20
2023-03-02T06:31:47.580Z,437.20
2023-03-02T06:36:47.859Z,437.20
2023-03-02T06:41:44.971Z,437.20
2023-03-02T06:46:44.275Z,437.20
2023-03-02T06:51:43.579Z,437.20
2023-03-02T06:56:42.889Z,437.20
2023-03-02T07:01:42.258Z,437.20
2023-03-02T07:06:42.373Z,437.20
2023-03-02T07:11:42.667Z,437.20
2023-03-02T07:16:40.039Z,437.20
2023-03-02T07:21:39.170Z,437.20
2023-03-02T07:26:39.503Z,437.20
2023-03-02T07:31:37.800Z,437.20
2023-03-02T07:36:37.140Z,437.20
2023-03-02T07:41:36.411Z,437.20
2023-03-02T07:46:35.756Z,437.20
2023-03-02T07:51:35.915Z,437.20
2023-03-02T07:56:34.244Z,432.10
2023-03-02T08:01:35.874Z,413.40
2023-03-02T08:06:33.762Z,413.40
2023-03-02T08:11:34.218Z,338.20
2023-03-02T08:16:31.211Z,381.60
2023-03-02T08:21:30.495Z,384.40
2023-03-02T08:26:30.675Z,427.50
2023-03-02T08:31:28.779Z,431.50
2023-03-02T08:36:27.937Z,420.70
2023-03-02T08:41:28.073Z,390.50
2023-03-02T08:46:28.526Z,435.00
2023-03-02T08:51:26.612Z,406.70
2023-03-02T08:56:23.953Z,422.20
2023-03-02T09:01:24.194Z,409.50
2023-03-02T09:06:23.333Z,400.30
2023-03-02T09:11:24.668Z,438.60
2023-03-02T09:16:23.049Z,395.30
2023-03-02T09:21:21.179Z,378.10
2023-03-02T09:26:20.483Z,427.70
2023-03-02T09:31:19.863Z,415.40
2023-03-02T09:36:18.006Z,444.90
2023-03-02T09:41:19.324Z,394.40
2023-03-02T09:46:17.698Z,66.60
2023-03-02T09:51:16.840Z,-446.10
2023-03-02T09:56:17.189Z,-446.10
2023-03-02T10:01:16.744Z,-35.60
2023-03-02T10:06:15.449Z,162.60
2023-03-02T10:11:13.787Z,416.90
2023-03-02T10:16:12.951Z,428.30
2023-03-02T10:21:12.061Z,387.30
2023-03-02T10:26:12.356Z,397.40
2023-03-02T10:31:10.708Z,370.40
2023-03-02T10:36:09.836Z,371.40
2023-03-02T10:41:09.134Z,361.20
2023-03-02T10:46:08.422Z,340.10
2023-03-02T10:51:07.762Z,420.00
2023-03-02T10:56:07.046Z,457.20
2023-03-02T11:01:07.365Z,469.80
2023-03-02T11:06:05.680Z,444.10
2023-03-02T11:11:06.999Z,429.10
2023-03-02T11:16:05.435Z,429.50
2023-03-02T11:21:03.588Z,428.40
2023-03-02T11:26:02.746Z,362.90
2023-03-02T11:31:01.952Z,411.10
2023-03-02T11:36:01.114Z,418.90
2023-03-02T11:41:01.234Z,413.70
2023-03-02T11:46:01.778Z,386.90
2023-03-02T11:50:58.702Z,447.40
2023-03-02T11:55:58.067Z,436.60
2023-03-02T12:00:57.167Z,413.60
2023-03-02T12:05:57.498Z,409.10
2023-03-02T12:10:55.647Z,429.70
2023-03-02T12:15:56.759Z,425.50
2023-03-02T12:20:54.069Z,393.90
2023-03-02T12:25:55.391Z,429.90
2023-03-02T12:30:53.699Z,431.20
2023-03-02T12:35:53.015Z,403.70
2023-03-02T12:40:52.348Z,412.50
2023-03-02T12:45:50.496Z,379.50
2023-03-02T12:50:49.625Z,391.90
2023-03-02T12:55:49.024Z,370.40
2023-03-02T13:00:48.194Z,347.60
2023-03-02T13:05:47.326Z,371.20
2023-03-02T13:10:46.733Z,436.50
2023-03-02T13:15:45.825Z,429.10
2023-03-02T13:20:45.118Z,394.50
2023-03-02T13:25:46.453Z,415.20
2023-03-02T13:30:44.931Z,410.00
2023-03-02T13:35:43.059Z,407.80
2023-03-02T13:40:42.380Z,404.30
2023-03-02T13:45:41.534Z,402.70
2023-03-02T13:50:42.659Z,442.60
2023-03-02T13:55:39.967Z,420.90
2023-03-02T14:00:39.343Z,379.00
2023-03-02T14:05:38.545Z,418.50
2023-03-02T14:10:39.679Z,438.60
2023-03-02T14:15:38.071Z,438.60
2023-03-02T14:20:36.228Z,438.60
2023-03-02T14:25:36.374Z,438.60
2023-03-02T14:30:35.545Z,438.60
2023-03-02T14:35:33.732Z,438.60
2023-03-02T14:40:33.875Z,438.60
2023-03-02T14:45:32.102Z,438.60
2023-03-02T14:50:32.273Z,438.60
2023-03-02T14:55:30.497Z,438.60
2023-03-02T15:00:29.659Z,438.60
2023-03-02T15:05:29.957Z,418.10
2023-03-02T15:10:28.125Z,418.10
2023-03-02T15:15:27.316Z,418.10
2023-03-02T15:20:26.431Z,458.80
2023-03-02T15:25:25.760Z,458.80
2023-03-02T15:30:25.908Z,389.30
2023-03-02T15:35:24.237Z,378.60
2023-03-02T15:40:23.571Z,378.60
2023-03-02T15:45:22.716Z,378.60
2023-03-02T15:50:21.995Z,362.20
2023-03-02T15:55:21.333Z,361.60
2023-03-02T16:00:20.683Z,361.90
2023-03-02T16:05:19.794Z,420.10
2023-03-02T16:10:20.151Z,426.30
2023-03-02T16:15:19.290Z,409.80
2023-03-02T16:20:17.423Z,422.70
2023-03-02T16:25:17.754Z,392.90
2023-03-02T16:30:15.876Z,397.10
2023-03-02T16:35:16.396Z,428.20
2023-03-02T16:40:15.364Z,426.60
2023-03-02T16:45:14.877Z,427.60
2023-03-02T16:50:12.851Z,393.10
2023-03-02T16:55:13.185Z,359.10
2023-03-02T17:00:11.329Z,421.40
2023-03-02T17:05:11.962Z,432.10
2023-03-02T17:10:10.201Z,412.40
2023-03-02T17:15:09.185Z,405.80
2023-03-02T17:20:08.817Z,423.20
2023-03-02T17:25:08.605Z,408.70
2023-03-02T17:30:07.973Z,427.00
2023-03-02T17:35:06.531Z,420.10
2023-03-02T17:40:06.524Z,398.10
2023-03-02T17:45:05.831Z,440.00
2023-03-02T17:50:07.076Z,445.70
2023-03-02T17:55:03.642Z,411.00
2023-03-02T18:00:02.664Z,423.30
2023-03-02T18:05:01.762Z,417.90
2023-03-02T18:10:01.188Z,388.00
2023-03-02T18:15:00.343Z,312.60
2023-03-02T18:19:59.795Z,325.80
2023-03-02T18:24:59.098Z,370.80
2023-03-02T18:29:58.462Z,315.20
2023-03-02T18:34:58.455Z,422.50
2023-03-02T18:39:57.676Z,426.00
2023-03-02T18:44:55.851Z,398.80
2023-03-02T18:49:54.815Z,362.30
2023-03-02T18:54:54.419Z,392.80
2023-03-02T18:59:53.598Z,455.50
2023-03-02T19:04:53.920Z,455.50
2023-03-02T19:09:53.279Z,406.60
2023-03-02T19:14:52.625Z,405.60
2023-03-02T19:19:50.697Z,413.20
2023-03-02T19:24:49.996Z,372.60
2023-03-02T19:29:50.993Z,413.90
2023-03-02T19:34:49.640Z,357.20
2023-03-02T19:39:48.805Z,380.30
2023-03-02T19:44:48.177Z,391.40
2023-03-02T19:49:47.299Z,425.50
2023-03-02T19:54:46.657Z,396.40
2023-03-02T19:59:45.583Z,387.10
2023-03-02T20:04:44.260Z,361.60
2023-03-02T20:09:43.421Z,361.10
2023-03-02T20:14:43.610Z,492.20
2023-03-02T20:19:41.789Z,428.80
2023-03-02T20:24:41.967Z,425.20
2023-03-02T20:29:41.055Z,419.30
2023-03-02T20:34:39.373Z,412.70
2023-03-02T20:39:41.827Z,418.50
2023-03-02T20:44:38.921Z,415.30
2023-03-02T20:49:36.976Z,409.20
2023-03-02T20:54:37.727Z,421.10
2023-03-02T20:59:41.326Z,407.50
2023-03-02T21:04:34.290Z,407.50
2023-03-02T21:09:33.569Z,407.50
2023-03-02T21:14:34.580Z,407.50
2023-03-02T21:19:31.928Z,409.30
2023-03-02T21:24:32.293Z,409.30
2023-03-02T21:29:31.678Z,456.50
2023-03-02T21:34:29.709Z,456.50
2023-03-02T21:39:28.874Z,434.00
2023-03-02T21:44:28.022Z,427.60
2023-03-02T21:49:28.156Z,437.10
2023-03-02T21:54:28.477Z,437.10
2023-03-02T21:59:26.859Z,437.10
2023-03-02T22:04:24.981Z,437.10
2023-03-02T22:09:24.287Z,430.00
2023-03-02T22:14:23.618Z,430.00
2023-03-02T22:19:23.760Z,430.00
2023-03-02T22:24:22.078Z,430.00
2023-03-02T22:29:21.421Z,419.40
2023-03-02T22:34:21.858Z,419.40
2023-03-02T22:39:21.992Z,419.40
2023-03-02T22:44:19.277Z,416.90
2023-03-02T22:49:18.584Z,433.60
2023-03-02T22:54:17.889Z,432.90
2023-03-02T22:59:17.231Z,439.10
2023-03-02T23:04:16.372Z,431.00
2023-03-02T23:09:16.702Z,425.80
2023-03-02T23:14:15.994Z,438.10
2023-03-02T23:19:14.309Z,422.50
2023-03-02T23:24:13.614Z,414.60
2023-03-02T23:29:12.929Z,410.70
2023-03-02T23:34:14.233Z,409.20
2023-03-02T23:39:11.382Z,415.80
2023-03-02T23:44:12.668Z,405.20
2023-03-02T23:49:10.961Z,390.00
2023-03-02T23:54:10.304Z,393.50
2023-03-02T23:59:10.643Z,393.50
